Time;durP1;ratioP1;P1;durP2;ratioP2;P2;SDS_P1;SDS_P2;PMS_P1;PMS_P2;Temp;Humidity;BMP_temperature;BMP_pressure;BME280_temperature;BME280_humidity;BME280_pressure;Samples;Min_cycle;Max_cycle;Signal;HPM_P1;HPM_P2
2023/08/22 00:00:21;;;;;;;10.10;8.02;;;;;;;;;;5065389;28;20247;-70
2023/08/22 00:02:48;;;;;;;12.07;8.20;;;;;;;;;;5061411;28;20267;-67
2023/08/22 00:05:15;;;;;;;8.73;7.90;;;;;;;;;;5064016;28;20205;-71
2023/08/22 00:07:43;;;;;;;10.57;7.85;;;;;;;;;;5063579;28;20230;-67
2023/08/22 00:10:10;;;;;;;8.93;8.02;;;;;;;;;;5062045;28;20230;-69
2023/08/22 00:12:38;;;;;;;9.63;8.57;;;;;;;;;;5059051;28;20201;-70
2023/08/22 00:15:09;;;;;;;9.27;8.38;;;;;;;;;;5062143;28;20202;-73
2023/08/22 00:17:40;;;;;;;9.77;8.80;;;;;;;;;;5054861;28;20230;-69
2023/08/22 00:20:08;;;;;;;9.63;8.63;;;;;;;;;;5061521;28;20216;-69
2023/08/22 00:22:36;;;;;;;9.90;8.02;;;;;;;;;;5059977;28;20651;-71
2023/08/22 00:25:07;;;;;;;8.93;8.13;;;;;;;;;;5059342;28;20220;-68
2023/08/22 00:27:34;;;;;;;10.50;8.23;;;;;;;;;;5057289;28;20229;-67
2023/08/22 00:30:02;;;;;;;9.13;8.23;;;;;;;;;;5059673;28;20316;-67
2023/08/22 00:32:30;;;;;;;9.85;8.68;;;;;;;;;;5058133;28;20278;-69
2023/08/22 00:34:57;;;;;;;9.32;8.20;;;;;;;;;;5057832;28;20761;-70
2023/08/22 00:37:25;;;;;;;12.10;8.43;;;;;;;;;;5061903;28;20217;-69
2023/08/22 00:39:52;;;;;;;9.20;8.30;;;;;;;;;;5065284;28;20201;-67
2023/08/22 00:42:19;;;;;;;9.02;8.05;;;;;;;;;;5080635;28;20211;-68
2023/08/22 00:44:47;;;;;;;11.07;8.48;;;;;;;;;;5057944;28;20202;-68
2023/08/22 00:47:16;;;;;;;9.10;8.20;;;;;;;;;;5058286;28;20233;-69
2023/08/22 00:49:43;;;;;;;10.15;8.45;;;;;;;;;;5062635;28;20221;-68
2023/08/22 00:52:10;;;;;;;9.60;8.75;;;;;;;;;;5056880;28;20236;-69
2023/08/22 00:54:38;;;;;;;10.30;8.68;;;;;;;;;;5057622;28;20284;-69
2023/08/22 00:57:05;;;;;;;9.25;8.35;;;;;;;;;;5058708;28;20230;-68
2023/08/22 00:59:33;;;;;;;9.63;8.57;;;;;;;;;;5058012;28;20290;-70
2023/08/22 01:02:00;;;;;;;9.90;7.88;;;;;;;;;;5058417;28;20270;-69
2023/08/22 01:04:27;;;;;;;9.48;8.55;;;;;;;;;;5059754;28;20234;-69
2023/08/22 01:07:15;;;;;;;8.77;7.85;;;;;;;;;;5061489;28;20205;-70
2023/08/22 01:10:02;;;;;;;11.45;8.35;;;;;;;;;;5056670;28;20794;-71
2023/08/22 01:12:32;;;;;;;10.57;8.35;;;;;;;;;;5056838;28;20199;-69
2023/08/22 01:15:26;;;;;;;10.27;8.52;;;;;;;;;;5059755;28;20676;-70
2023/08/22 01:17:54;;;;;;;12.02;8.40;;;;;;;;;;5057223;28;20691;-72
2023/08/22 01:20:22;;;;;;;11.18;8.65;;;;;;;;;;5058046;28;20213;-68
2023/08/22 01:22:49;;;;;;;9.10;8.30;;;;;;;;;;5056550;28;20211;-69
2023/08/22 01:25:17;;;;;;;8.65;7.75;;;;;;;;;;5057942;28;20206;-68
2023/08/22 01:28:08;;;;;;;8.98;8.18;;;;;;;;;;5060331;28;20232;-67
2023/08/22 01:30:41;;;;;;;9.45;8.50;;;;;;;;;;5054555;28;20303;-68
2023/08/22 01:33:12;;;;;;;8.93;7.80;;;;;;;;;;5063250;28;20667;-68
2023/08/22 01:35:41;;;;;;;9.48;8.38;;;;;;;;;;5058867;28;20230;-70
2023/08/22 01:38:10;;;;;;;10.95;8.57;;;;;;;;;;5055463;28;20639;-66
2023/08/22 01:40:38;;;;;;;18.48;11.55;;;;;;;;;;5064046;28;20266;-68
2023/08/22 01:43:05;;;;;;;13.18;10.32;;;;;;;;;;5059597;28;20414;-69
2023/08/22 01:45:32;;;;;;;9.68;8.35;;;;;;;;;;5058274;28;20808;-70
2023/08/22 01:48:00;;;;;;;10.45;8.65;;;;;;;;;;5061720;28;20237;-69
2023/08/22 01:50:27;;;;;;;9.38;8.20;;;;;;;;;;5059764;28;20291;-69
2023/08/22 01:52:54;;;;;;;9.45;8.00;;;;;;;;;;5061579;28;20208;-71
2023/08/22 01:55:21;;;;;;;8.98;7.95;;;;;;;;;;5062718;28;20206;-69
2023/08/22 01:57:49;;;;;;;8.68;7.82;;;;;;;;;;5060363;28;20765;-69
2023/08/22 02:00:16;;;;;;;11.82;9.13;;;;;;;;;;5083342;28;20201;-71
2023/08/22 02:02:43;;;;;;;10.68;9.52;;;;;;;;;;5074334;28;20209;-71
2023/08/22 02:05:11;;;;;;;10.77;8.98;;;;;;;;;;5058305;28;20286;-68
2023/08/22 02:07:38;;;;;;;23.55;18.30;;;;;;;;;;5055245;28;20642;-68
2023/08/22 02:10:06;;;;;;;18.98;14.25;;;;;;;;;;5061148;28;20232;-69
2023/08/22 02:12:33;;;;;;;18.02;15.27;;;;;;;;;;5054361;28;20217;-68
2023/08/22 02:15:00;;;;;;;13.32;11.93;;;;;;;;;;5056428;28;20198;-70
2023/08/22 02:17:28;;;;;;;13.38;12.00;;;;;;;;;;5053200;28;20229;-67
2023/08/22 02:19:55;;;;;;;11.68;10.48;;;;;;;;;;5057679;28;20197;-68
2023/08/22 02:22:22;;;;;;;11.77;9.80;;;;;;;;;;5062948;28;20277;-69
2023/08/22 02:24:49;;;;;;;12.02;10.20;;;;;;;;;;5061487;28;20201;-69
2023/08/22 02:27:17;;;;;;;10.82;9.73;;;;;;;;;;5059453;28;20284;-69
2023/08/22 02:29:44;;;;;;;10.57;9.48;;;;;;;;;;5056178;28;20217;-69
2023/08/22 02:32:12;;;;;;;10.68;8.88;;;;;;;;;;5059089;28;20260;-70
2023/08/22 02:34:40;;;;;;;9.88;8.85;;;;;;;;;;5056555;28;20290;-68
2023/08/22 02:37:07;;;;;;;11.02;8.65;;;;;;;;;;5054406;28;20229;-69
2023/08/22 02:39:34;;;;;;;9.77;8.68;;;;;;;;;;5061155;28;20209;-69
2023/08/22 02:42:02;;;;;;;9.35;8.38;;;;;;;;;;5055731;28;20209;-69
2023/08/22 02:44:29;;;;;;;9.55;8.52;;;;;;;;;;5059086;28;20209;-70
2023/08/22 02:46:56;;;;;;;8.85;8.15;;;;;;;;;;5061489;28;20308;-69
2023/08/22 02:49:23;;;;;;;9.43;8.60;;;;;;;;;;5058969;28;20291;-70
2023/08/22 02:51:51;;;;;;;10.02;8.20;;;;;;;;;;5057970;28;20197;-69
2023/08/22 02:54:18;;;;;;;9.93;8.70;;;;;;;;;;5059547;28;20198;-69
2023/08/22 02:56:45;;;;;;;9.50;8.60;;;;;;;;;;5072675;28;20201;-69
2023/08/22 02:59:13;;;;;;;9.32;8.40;;;;;;;;;;5056706;28;20699;-69
2023/08/22 03:01:40;;;;;;;9.40;8.40;;;;;;;;;;5056719;28;20664;-69
2023/08/22 03:04:07;;;;;;;10.05;9.05;;;;;;;;;;5059766;28;20202;-70
2023/08/22 03:06:34;;;;;;;10.93;9.52;;;;;;;;;;5064110;28;20198;-70
2023/08/22 03:09:03;;;;;;;11.10;9.07;;;;;;;;;;5063410;28;20275;-70
2023/08/22 03:11:30;;;;;;;10.63;9.25;;;;;;;;;;5055551;28;20222;-69
2023/08/22 03:13:57;;;;;;;9.35;8.38;;;;;;;;;;5057975;28;20205;-69
2023/08/22 03:16:24;;;;;;;14.73;8.80;;;;;;;;;;5060920;28;20668;-68
2023/08/22 03:18:52;;;;;;;12.23;11.00;;;;;;;;;;5056448;28;20226;-69
2023/08/22 03:21:19;;;;;;;13.90;12.40;;;;;;;;;;5053434;28;20218;-69
2023/08/22 03:23:47;;;;;;;12.35;10.95;;;;;;;;;;5059440;28;20709;-69
2023/08/22 03:26:14;;;;;;;11.75;10.52;;;;;;;;;;5056313;28;20225;-69
2023/08/22 03:28:41;;;;;;;13.57;12.20;;;;;;;;;;5055177;28;20225;-70
2023/08/22 03:31:09;;;;;;;12.77;11.00;;;;;;;;;;5057851;28;20233;-70
2023/08/22 03:33:36;;;;;;;13.48;11.07;;;;;;;;;;5056030;28;20213;-69
2023/08/22 03:36:04;;;;;;;13.73;11.43;;;;;;;;;;5055738;28;20259;-69
2023/08/22 03:38:31;;;;;;;10.77;9.68;;;;;;;;;;5056916;28;20222;-70
2023/08/22 03:40:58;;;;;;;12.07;10.43;;;;;;;;;;5057550;28;20215;-70
2023/08/22 03:43:26;;;;;;;9.75;8.85;;;;;;;;;;5061905;28;20205;-70
2023/08/22 03:45:53;;;;;;;9.52;8.65;;;;;;;;;;5059832;28;20197;-69
2023/08/22 03:48:20;;;;;;;9.05;8.23;;;;;;;;;;5065291;28;20225;-69
2023/08/22 03:50:48;;;;;;;10.07;9.07;;;;;;;;;;5057200;28;20225;-69
2023/08/22 03:53:16;;;;;;;9.25;8.43;;;;;;;;;;5060326;28;20202;-70
2023/08/22 03:55:44;;;;;;;9.77;8.70;;;;;;;;;;5062235;28;20202;-69
2023/08/22 03:58:11;;;;;;;11.38;9.07;;;;;;;;;;5059180;28;20232;-68
2023/08/22 04:00:39;;;;;;;11.13;8.75;;;;;;;;;;5062171;28;20247;-69
2023/08/22 04:03:06;;;;;;;9.70;8.80;;;;;;;;;;5058311;28;20198;-69
2023/08/22 04:05:33;;;;;;;11.18;8.45;;;;;;;;;;5056022;28;20214;-69
2023/08/22 04:08:01;;;;;;;10.32;9.25;;;;;;;;;;5059108;28;20237;-69
2023/08/22 04:10:28;;;;;;;9.93;8.95;;;;;;;;;;5054635;28;20240;-69
2023/08/22 04:12:55;;;;;;;12.27;9.18;;;;;;;;;;5057873;28;20267;-70
2023/08/22 04:15:23;;;;;;;11.52;10.52;;;;;;;;;;5056375;28;21501;-70
2023/08/22 04:17:50;;;;;;;11.85;10.20;;;;;;;;;;5055349;28;20217;-69
2023/08/22 04:20:17;;;;;;;11.75;9.52;;;;;;;;;;5054929;28;20213;-70
2023/08/22 04:22:45;;;;;;;9.70;8.73;;;;;;;;;;5052727;28;20221;-69
2023/08/22 04:25:13;;;;;;;13.70;9.05;;;;;;;;;;5068442;28;20215;-69
2023/08/22 04:27:41;;;;;;;10.00;8.80;;;;;;;;;;5055410;28;20299;-70
2023/08/22 04:30:12;;;;;;;9.48;8.55;;;;;;;;;;5069701;28;20306;-70
2023/08/22 04:32:39;;;;;;;10.20;8.27;;;;;;;;;;5056411;28;20198;-71
2023/08/22 04:35:07;;;;;;;11.55;10.30;;;;;;;;;;5063200;28;20198;-70
2023/08/22 04:37:34;;;;;;;22.02;16.05;;;;;;;;;;5062202;28;20945;-69
2023/08/22 04:40:03;;;;;;;14.93;11.02;;;;;;;;;;5060809;28;20209;-70
2023/08/22 04:42:30;;;;;;;9.95;8.95;;;;;;;;;;5059852;28;20202;-70
2023/08/22 04:44:57;;;;;;;9.80;8.80;;;;;;;;;;5088555;28;20294;-70
2023/08/22 04:47:25;;;;;;;12.13;8.75;;;;;;;;;;5088769;28;20255;-69
2023/08/22 04:49:52;;;;;;;10.13;9.13;;;;;;;;;;5064475;28;20236;-67
2023/08/22 04:52:19;;;;;;;10.57;9.43;;;;;;;;;;5059873;28;20202;-68
2023/08/22 04:54:47;;;;;;;10.82;9.82;;;;;;;;;;5063641;28;20694;-70
2023/08/22 04:57:14;;;;;;;10.68;9.57;;;;;;;;;;5061957;28;20323;-68
2023/08/22 04:59:41;;;;;;;15.20;10.05;;;;;;;;;;5061356;28;20206;-69
2023/08/22 05:02:08;;;;;;;10.20;9.15;;;;;;;;;;5058364;28;20198;-70
2023/08/22 05:04:36;;;;;;;9.77;8.85;;;;;;;;;;5062767;28;20615;-68
2023/08/22 05:07:03;;;;;;;9.95;8.95;;;;;;;;;;5059455;28;20226;-67
2023/08/22 05:09:30;;;;;;;11.60;9.40;;;;;;;;;;5062218;28;20210;-67
2023/08/22 05:11:57;;;;;;;10.27;9.27;;;;;;;;;;5060204;28;20237;-67
2023/08/22 05:14:25;;;;;;;10.13;9.18;;;;;;;;;;5060526;28;20626;-70
2023/08/22 05:16:53;;;;;;;10.50;9.40;;;;;;;;;;5060353;28;20198;-70
2023/08/22 05:19:20;;;;;;;9.65;8.55;;;;;;;;;;5065907;28;20198;-70
2023/08/22 05:21:48;;;;;;;9.82;8.88;;;;;;;;;;5059135;28;20286;-69
2023/08/22 05:24:15;;;;;;;12.27;9.13;;;;;;;;;;5058001;28;20206;-69
2023/08/22 05:26:42;;;;;;;10.27;9.15;;;;;;;;;;5058420;28;20283;-69
2023/08/22 05:29:10;;;;;;;8.88;7.97;;;;;;;;;;5057587;28;20201;-69
2023/08/22 05:31:37;;;;;;;9.77;8.48;;;;;;;;;;5060557;28;20222;-69
2023/08/22 05:34:04;;;;;;;10.32;8.60;;;;;;;;;;5063159;28;20216;-69
2023/08/22 05:36:31;;;;;;;9.35;8.38;;;;;;;;;;5062631;28;20255;-70
2023/08/22 05:39:00;;;;;;;10.05;9.15;;;;;;;;;;5062564;28;20240;-70
2023/08/22 05:41:27;;;;;;;11.02;8.88;;;;;;;;;;5060553;28;20214;-69
2023/08/22 05:43:55;;;;;;;10.10;9.13;;;;;;;;;;5058659;28;20221;-69
2023/08/22 05:46:22;;;;;;;10.20;8.75;;;;;;;;;;5057798;28;20209;-70
2023/08/22 05:48:50;;;;;;;10.27;8.80;;;;;;;;;;5058046;28;20224;-69
2023/08/22 05:51:17;;;;;;;9.23;8.32;;;;;;;;;;5062681;28;20225;-70
2023/08/22 05:53:44;;;;;;;10.18;8.75;;;;;;;;;;5059808;28;20255;-68
2023/08/22 05:56:11;;;;;;;9.00;8.15;;;;;;;;;;5066893;28;20224;-69
2023/08/22 05:58:39;;;;;;;9.45;8.20;;;;;;;;;;5061713;28;21283;-68
2023/08/22 06:01:07;;;;;;;8.32;7.40;;;;;;;;;;5055237;28;20209;-69
2023/08/22 06:03:35;;;;;;;8.52;7.68;;;;;;;;;;5057985;28;20228;-70
2023/08/22 06:06:03;;;;;;;8.10;7.40;;;;;;;;;;5057946;28;20263;-69
2023/08/22 06:08:30;;;;;;;10.40;7.68;;;;;;;;;;5063983;28;20271;-69
2023/08/22 06:11:00;;;;;;;8.50;7.55;;;;;;;;;;5057183;28;20301;-69
2023/08/22 06:13:28;;;;;;;8.52;7.72;;;;;;;;;;5061459;28;20276;-68
2023/08/22 06:15:56;;;;;;;8.85;7.78;;;;;;;;;;5056920;28;20266;-70
2023/08/22 06:18:24;;;;;;;8.85;7.68;;;;;;;;;;5064575;28;20305;-69
2023/08/22 06:20:51;;;;;;;8.25;7.20;;;;;;;;;;5064321;28;20268;-69
2023/08/22 06:23:18;;;;;;;10.60;7.10;;;;;;;;;;5063909;28;20295;-68
2023/08/22 06:25:48;;;;;;;8.05;7.25;;;;;;;;;;5063877;28;20206;-69
2023/08/22 06:28:15;;;;;;;7.75;7.05;;;;;;;;;;5061895;28;20381;-69
2023/08/22 06:30:42;;;;;;;9.50;7.60;;;;;;;;;;5061172;28;20279;-70
2023/08/22 06:33:09;;;;;;;9.05;7.20;;;;;;;;;;5063338;28;20551;-69
2023/08/22 06:35:37;;;;;;;7.97;7.20;;;;;;;;;;5058451;28;20216;-70
2023/08/22 06:38:04;;;;;;;8.15;6.88;;;;;;;;;;5062403;28;20225;-68
2023/08/22 06:40:35;;;;;;;7.85;7.05;;;;;;;;;;5061392;28;20737;-70
2023/08/22 06:43:03;;;;;;;7.55;6.85;;;;;;;;;;5062405;28;20631;-69
2023/08/22 06:45:30;;;;;;;7.78;7.03;;;;;;;;;;5065729;28;20258;-70
2023/08/22 06:47:58;;;;;;;8.68;7.53;;;;;;;;;;5060179;28;20586;-68
2023/08/22 06:50:25;;;;;;;7.97;7.30;;;;;;;;;;5045635;28;20240;-69
2023/08/22 06:52:52;;;;;;;7.80;7.00;;;;;;;;;;5064259;28;20201;-69
2023/08/22 06:55:20;;;;;;;9.35;7.43;;;;;;;;;;5055768;28;20501;-70
2023/08/22 06:57:47;;;;;;;8.02;7.25;;;;;;;;;;5062756;28;20923;-70
2023/08/22 07:00:16;;;;;;;7.65;6.95;;;;;;;;;;5059455;28;20289;-69
2023/08/22 07:02:44;;;;;;;8.85;7.28;;;;;;;;;;5057170;28;20213;-69
2023/08/22 07:15:48;;;;;;;7.68;6.00;;;;;;;;;;5277700;22;20238;-77
2023/08/22 07:18:15;;;;;;;6.65;5.95;;;;;;;;;;5042753;28;20195;-76
2023/08/22 07:20:43;;;;;;;6.85;6.15;;;;;;;;;;5038832;28;20202;-75
2023/08/22 07:23:10;;;;;;;6.60;6.00;;;;;;;;;;5058468;28;20679;-76
2023/08/22 07:25:37;;;;;;;6.35;5.68;;;;;;;;;;5039427;28;20276;-76
2023/08/22 07:28:05;;;;;;;7.80;5.63;;;;;;;;;;5037731;28;20301;-75
2023/08/22 07:30:35;;;;;;;7.70;5.82;;;;;;;;;;5038429;28;20281;-76
2023/08/22 07:33:02;;;;;;;9.38;5.72;;;;;;;;;;5039752;28;20198;-76
2023/08/22 07:35:30;;;;;;;5.82;5.25;;;;;;;;;;5038114;28;20221;-74
2023/08/22 07:37:57;;;;;;;6.00;4.90;;;;;;;;;;5027950;28;20202;-77
2023/08/22 07:40:24;;;;;;;5.55;4.50;;;;;;;;;;5042957;28;20236;-74
2023/08/22 07:42:52;;;;;;;7.18;4.93;;;;;;;;;;5025622;28;20202;-77
2023/08/22 07:45:19;;;;;;;6.32;5.30;;;;;;;;;;5044644;28;20272;-75
2023/08/22 07:47:46;;;;;;;7.40;4.70;;;;;;;;;;5041629;28;20203;-76
2023/08/22 07:50:13;;;;;;;5.95;5.40;;;;;;;;;;5042339;28;20210;-74
2023/08/22 07:52:41;;;;;;;6.00;5.15;;;;;;;;;;5045507;28;20257;-75
2023/08/22 07:55:09;;;;;;;6.32;4.78;;;;;;;;;;5045082;28;20230;-77
2023/08/22 07:57:36;;;;;;;6.07;4.65;;;;;;;;;;5036658;28;20748;-75
2023/08/22 08:00:13;;;;;;;5.55;5.03;;;;;;;;;;5042891;28;20589;-77
2023/08/22 08:02:40;;;;;;;7.18;5.18;;;;;;;;;;5054717;28;20259;-77
2023/08/22 08:05:08;;;;;;;5.63;5.00;;;;;;;;;;5045022;28;20230;-76
2023/08/22 08:07:35;;;;;;;6.25;4.90;;;;;;;;;;5043000;28;20289;-76
2023/08/22 08:10:04;;;;;;;6.97;5.15;;;;;;;;;;5047739;28;20656;-74
2023/08/22 08:12:31;;;;;;;7.80;5.32;;;;;;;;;;5037637;28;20257;-76
2023/08/22 08:14:58;;;;;;;5.72;5.22;;;;;;;;;;5037611;28;20237;-74
2023/08/22 08:17:25;;;;;;;6.38;5.72;;;;;;;;;;5041456;28;20203;-75
2023/08/22 08:19:53;;;;;;;9.00;7.25;;;;;;;;;;5041456;28;20688;-75
2023/08/22 08:22:20;;;;;;;6.78;6.10;;;;;;;;;;5038525;28;20665;-77
2023/08/22 08:24:48;;;;;;;6.15;5.32;;;;;;;;;;5041433;28;20226;-75
2023/08/22 08:27:15;;;;;;;6.35;5.72;;;;;;;;;;5041865;28;20256;-77
2023/08/22 08:29:42;;;;;;;9.38;5.43;;;;;;;;;;5038322;28;20217;-76
2023/08/22 08:32:10;;;;;;;6.43;5.70;;;;;;;;;;5044541;28;20319;-75
2023/08/22 08:34:37;;;;;;;8.82;5.70;;;;;;;;;;5039850;28;20241;-75
2023/08/22 08:37:05;;;;;;;6.63;5.88;;;;;;;;;;5042020;28;20206;-73
2023/08/22 08:39:32;;;;;;;7.85;5.60;;;;;;;;;;5038949;28;20222;-76
2023/08/22 08:42:04;;;;;;;7.30;5.30;;;;;;;;;;5039739;28;20217;-74
2023/08/22 08:44:34;;;;;;;6.82;5.70;;;;;;;;;;5040963;28;20270;-76
2023/08/22 08:47:02;;;;;;;5.93;4.85;;;;;;;;;;5043735;28;20233;-76
2023/08/22 08:49:32;;;;;;;6.78;4.90;;;;;;;;;;5040372;28;20317;-75
2023/08/22 08:52:03;;;;;;;5.32;4.43;;;;;;;;;;5042435;28;20222;-76
2023/08/22 08:54:32;;;;;;;7.15;5.00;;;;;;;;;;5041276;28;20218;-77
2023/08/22 08:56:59;;;;;;;5.80;4.88;;;;;;;;;;5040664;28;20321;-76
2023/08/22 08:59:27;;;;;;;5.78;5.07;;;;;;;;;;5041225;28;20571;-77
2023/08/22 09:01:54;;;;;;;5.18;4.68;;;;;;;;;;5044685;28;20206;-74
2023/08/22 09:04:22;;;;;;;5.68;4.57;;;;;;;;;;5042925;28;20611;-76
2023/08/22 09:06:49;;;;;;;5.13;4.68;;;;;;;;;;5039426;28;20211;-76
2023/08/22 09:09:17;;;;;;;5.05;4.63;;;;;;;;;;5040407;28;20206;-76
2023/08/22 09:11:50;;;;;;;6.43;5.13;;;;;;;;;;5042378;28;20222;-76
2023/08/22 09:14:21;;;;;;;5.65;4.60;;;;;;;;;;5041099;28;20367;-77
2023/08/22 09:16:49;;;;;;;6.18;4.45;;;;;;;;;;5043752;28;20213;-76
2023/08/22 09:19:16;;;;;;;4.78;4.38;;;;;;;;;;5037794;28;22139;-75
2023/08/22 09:21:57;;;;;;;4.22;3.83;;;;;;;;;;5039701;28;20924;-76
2023/08/22 09:24:25;;;;;;;4.45;4.05;;;;;;;;;;5037882;28;20221;-78
2023/08/22 09:26:52;;;;;;;7.07;4.15;;;;;;;;;;5044871;28;20243;-75
2023/08/22 09:29:29;;;;;;;4.55;4.05;;;;;;;;;;5037909;28;20558;-75
2023/08/22 09:32:06;;;;;;;7.75;4.15;;;;;;;;;;5036394;28;20618;-75
2023/08/22 09:34:34;;;;;;;5.53;4.63;;;;;;;;;;5041708;28;20276;-75
2023/08/22 09:37:02;;;;;;;5.30;4.65;;;;;;;;;;5033522;28;20218;-74
2023/08/22 09:39:36;;;;;;;6.55;4.45;;;;;;;;;;5040628;28;20303;-74
2023/08/22 09:42:04;;;;;;;4.60;3.83;;;;;;;;;;5034699;28;20210;-75
2023/08/22 09:44:31;;;;;;;4.70;4.30;;;;;;;;;;5042529;28;20331;-75
2023/08/22 09:46:58;;;;;;;4.55;3.53;;;;;;;;;;5025240;28;20209;-74
2023/08/22 09:49:26;;;;;;;5.35;3.50;;;;;;;;;;5038053;28;20267;-76
2023/08/22 09:51:54;;;;;;;4.07;3.70;;;;;;;;;;5038039;28;20214;-73
2023/08/22 09:54:22;;;;;;;4.00;3.70;;;;;;;;;;5040399;28;20632;-76
2023/08/22 09:56:50;;;;;;;4.88;4.03;;;;;;;;;;5032305;28;20202;-76
2023/08/22 09:59:18;;;;;;;3.78;3.30;;;;;;;;;;5035489;28;20299;-76
2023/08/22 10:01:46;;;;;;;4.22;3.80;;;;;;;;;;5040091;28;20242;-75
2023/08/22 10:04:13;;;;;;;5.22;3.60;;;;;;;;;;5039609;28;20241;-76
2023/08/22 10:06:41;;;;;;;5.63;3.90;;;;;;;;;;5042646;28;20206;-75
2023/08/22 10:09:13;;;;;;;3.72;3.40;;;;;;;;;;5039334;28;20296;-74
2023/08/22 10:11:41;;;;;;;5.47;4.55;;;;;;;;;;5034886;28;20834;-74
2023/08/22 10:14:13;;;;;;;4.53;4.07;;;;;;;;;;5038941;28;20206;-74
2023/08/22 10:16:40;;;;;;;4.32;3.63;;;;;;;;;;5034082;28;20283;-76
2023/08/22 10:19:09;;;;;;;6.15;3.85;;;;;;;;;;5036228;28;20291;-75
2023/08/22 10:21:46;;;;;;;5.18;3.70;;;;;;;;;;5038853;28;20208;-74
2023/08/22 10:24:33;;;;;;;3.45;3.15;;;;;;;;;;5037640;28;20233;-75
2023/08/22 10:27:04;;;;;;;4.28;3.40;;;;;;;;;;5039235;28;20205;-76
2023/08/22 10:29:35;;;;;;;7.90;4.22;;;;;;;;;;5036675;28;20210;-76
2023/08/22 10:32:03;;;;;;;5.03;3.30;;;;;;;;;;5032949;28;20230;-76
2023/08/22 10:34:39;;;;;;;3.70;3.28;;;;;;;;;;5038143;28;20230;-76
2023/08/22 10:37:17;;;;;;;8.38;4.47;;;;;;;;;;5056248;28;20636;-75
2023/08/22 10:39:51;;;;;;;3.88;3.45;;;;;;;;;;5057393;28;20205;-75
2023/08/22 10:42:18;;;;;;;4.80;3.45;;;;;;;;;;5037445;28;20263;-73
2023/08/22 10:44:52;;;;;;;3.90;3.38;;;;;;;;;;5039683;28;20226;-75
2023/08/22 10:47:21;;;;;;;5.80;3.67;;;;;;;;;;5042248;28;20198;-75
2023/08/22 10:49:49;;;;;;;5.10;3.55;;;;;;;;;;5040977;28;20716;-75
2023/08/22 10:52:37;;;;;;;3.47;3.10;;;;;;;;;;5037349;28;20227;-77
2023/08/22 10:55:08;;;;;;;3.97;3.60;;;;;;;;;;5034042;28;20579;-75
2023/08/22 10:57:37;;;;;;;3.55;2.80;;;;;;;;;;5037025;28;20672;-74
2023/08/22 11:00:12;;;;;;;3.45;3.15;;;;;;;;;;5037796;28;20716;-76
2023/08/22 11:02:41;;;;;;;3.33;3.03;;;;;;;;;;5035012;28;20292;-77
2023/08/22 11:05:11;;;;;;;4.47;3.63;;;;;;;;;;5036317;28;20294;-73
2023/08/22 11:07:40;;;;;;;3.95;3.47;;;;;;;;;;5038099;28;20315;-76
2023/08/22 11:10:08;;;;;;;4.30;3.53;;;;;;;;;;5034150;28;20679;-74
2023/08/22 11:12:35;;;;;;;3.60;3.30;;;;;;;;;;5036772;28;20257;-77
2023/08/22 11:15:02;;;;;;;4.25;3.40;;;;;;;;;;5032543;28;20357;-75
2023/08/22 11:17:30;;;;;;;3.70;3.40;;;;;;;;;;5039998;28;20270;-76
2023/08/22 11:19:57;;;;;;;4.57;3.47;;;;;;;;;;5039686;28;20233;-75
2023/08/22 11:22:25;;;;;;;3.03;2.83;;;;;;;;;;5042142;28;20198;-73
2023/08/22 11:24:52;;;;;;;3.53;3.10;;;;;;;;;;5039933;28;20263;-76
2023/08/22 11:27:19;;;;;;;5.70;3.67;;;;;;;;;;5039974;28;20669;-76
2023/08/22 11:29:51;;;;;;;7.25;3.58;;;;;;;;;;5037464;28;20211;-75
2023/08/22 11:32:26;;;;;;;3.55;3.25;;;;;;;;;;5040234;28;20226;-77
2023/08/22 11:34:55;;;;;;;4.00;3.53;;;;;;;;;;5046208;28;20327;-74
2023/08/22 11:37:22;;;;;;;4.03;3.22;;;;;;;;;;5041759;28;20336;-77
2023/08/22 11:39:50;;;;;;;4.30;3.22;;;;;;;;;;5042494;28;20573;-75
2023/08/22 11:42:18;;;;;;;4.57;2.97;;;;;;;;;;5044326;28;20673;-75
2023/08/22 11:44:51;;;;;;;3.28;3.08;;;;;;;;;;5035196;28;20276;-77
2023/08/22 11:47:19;;;;;;;3.55;3.08;;;;;;;;;;5046771;28;20213;-77
2023/08/22 11:49:50;;;;;;;4.22;2.95;;;;;;;;;;5041682;28;20250;-74
2023/08/22 11:52:17;;;;;;;3.90;3.13;;;;;;;;;;5038933;28;20272;-76
2023/08/22 11:54:45;;;;;;;3.75;3.20;;;;;;;;;;5039586;28;20711;-76
2023/08/22 11:57:12;;;;;;;4.78;3.10;;;;;;;;;;5037113;28;20209;-75
2023/08/22 11:59:42;;;;;;;4.15;3.30;;;;;;;;;;5036742;28;20270;-75
2023/08/22 12:02:12;;;;;;;4.95;3.40;;;;;;;;;;5036897;28;20217;-77
2023/08/22 12:04:47;;;;;;;3.60;3.13;;;;;;;;;;5040294;28;20218;-75
2023/08/22 12:07:15;;;;;;;3.55;3.25;;;;;;;;;;5039454;28;20726;-77
2023/08/22 12:09:42;;;;;;;5.55;3.47;;;;;;;;;;5042134;28;20206;-75
2023/08/22 12:12:13;;;;;;;5.32;3.92;;;;;;;;;;5037815;28;20287;-75
2023/08/22 12:14:41;;;;;;;7.00;3.55;;;;;;;;;;5044658;28;20230;-78
2023/08/22 12:17:08;;;;;;;3.40;3.10;;;;;;;;;;5040007;28;20248;-75
2023/08/22 12:19:35;;;;;;;4.40;3.67;;;;;;;;;;5045358;28;20194;-76
2023/08/22 12:22:03;;;;;;;5.30;3.50;;;;;;;;;;5047090;28;20210;-76
2023/08/22 12:24:30;;;;;;;4.32;3.17;;;;;;;;;;5047760;28;20594;-76
2023/08/22 12:26:58;;;;;;;5.22;3.22;;;;;;;;;;5047305;28;20217;-74
2023/08/22 12:29:25;;;;;;;6.43;3.80;;;;;;;;;;5047302;28;20710;-76
2023/08/22 12:31:52;;;;;;;4.05;3.67;;;;;;;;;;5048599;28;20668;-75
2023/08/22 12:34:19;;;;;;;4.10;3.70;;;;;;;;;;5043916;28;20299;-76
2023/08/22 12:36:47;;;;;;;5.60;4.13;;;;;;;;;;5045462;28;20214;-76
2023/08/22 12:39:14;;;;;;;4.40;3.70;;;;;;;;;;5024685;28;20244;-76
2023/08/22 12:41:41;;;;;;;5.30;3.70;;;;;;;;;;5046439;28;20264;-76
2023/08/22 12:44:08;;;;;;;4.72;3.78;;;;;;;;;;5029087;28;20660;-76
2023/08/22 12:46:35;;;;;;;3.58;3.25;;;;;;;;;;5038159;28;20800;-78
2023/08/22 12:49:03;;;;;;;4.88;3.13;;;;;;;;;;5045013;28;20726;-76
2023/08/22 12:51:30;;;;;;;4.70;3.33;;;;;;;;;;5044499;28;20279;-77
2023/08/22 12:53:57;;;;;;;5.30;3.40;;;;;;;;;;5038665;28;20304;-77
2023/08/22 12:56:27;;;;;;;3.88;3.20;;;;;;;;;;5042212;28;20685;-76
2023/08/22 12:58:54;;;;;;;3.25;2.95;;;;;;;;;;5037898;28;20869;-79
2023/08/22 13:01:22;;;;;;;3.92;2.97;;;;;;;;;;5030045;28;20300;-76
2023/08/22 13:03:53;;;;;;;3.72;3.20;;;;;;;;;;5040742;28;20239;-76
2023/08/22 13:06:21;;;;;;;4.25;3.60;;;;;;;;;;5044156;28;20282;-76
2023/08/22 13:08:48;;;;;;;3.67;3.08;;;;;;;;;;5034854;28;20202;-77
2023/08/22 13:11:25;;;;;;;4.05;2.88;;;;;;;;;;5038776;28;20211;-76
2023/08/22 13:13:52;;;;;;;3.50;3.20;;;;;;;;;;5044370;28;20244;-76
2023/08/22 13:16:20;;;;;;;3.58;3.28;;;;;;;;;;5035019;28;20229;-77
2023/08/22 13:18:48;;;;;;;4.13;3.70;;;;;;;;;;5044516;28;20204;-76
2023/08/22 13:21:15;;;;;;;3.25;2.95;;;;;;;;;;5036411;28;20206;-77
2023/08/22 13:23:42;;;;;;;3.10;2.80;;;;;;;;;;5042035;28;20214;-76
2023/08/22 13:26:10;;;;;;;3.78;3.40;;;;;;;;;;5035983;28;20275;-76
2023/08/22 13:28:37;;;;;;;4.40;3.10;;;;;;;;;;5041225;28;20206;-76
2023/08/22 13:31:04;;;;;;;4.20;3.85;;;;;;;;;;5040959;28;20256;-77
2023/08/22 13:33:32;;;;;;;5.03;3.45;;;;;;;;;;5037410;28;20236;-77
2023/08/22 13:35:59;;;;;;;4.63;3.58;;;;;;;;;;5034631;28;20222;-76
2023/08/22 13:38:26;;;;;;;4.30;3.42;;;;;;;;;;5039395;28;20258;-75
2023/08/22 13:40:53;;;;;;;3.63;3.33;;;;;;;;;;5040908;28;20298;-76
2023/08/22 13:43:20;;;;;;;5.43;3.30;;;;;;;;;;5043951;28;20232;-78
2023/08/22 13:45:48;;;;;;;3.72;3.22;;;;;;;;;;5038840;28;20231;-78
2023/08/22 13:48:15;;;;;;;3.70;3.40;;;;;;;;;;5042472;28;20295;-77
2023/08/22 13:50:42;;;;;;;5.30;3.63;;;;;;;;;;5036746;28;20209;-75
2023/08/22 13:53:09;;;;;;;4.72;4.13;;;;;;;;;;5036184;28;20311;-76
2023/08/22 13:55:38;;;;;;;7.07;5.82;;;;;;;;;;5039703;28;20307;-76
2023/08/22 13:58:05;;;;;;;4.90;3.35;;;;;;;;;;5035263;28;20225;-75
2023/08/22 14:00:32;;;;;;;7.93;4.63;;;;;;;;;;5034650;28;20270;-75
2023/08/22 14:03:00;;;;;;;5.72;4.20;;;;;;;;;;5035874;28;20690;-76
2023/08/22 14:05:28;;;;;;;3.90;3.60;;;;;;;;;;5048029;28;20777;-75
2023/08/22 14:07:55;;;;;;;3.75;3.45;;;;;;;;;;5039870;28;20689;-76
2023/08/22 14:10:23;;;;;;;4.60;3.22;;;;;;;;;;5041698;28;20202;-76
2023/08/22 14:12:51;;;;;;;3.80;3.50;;;;;;;;;;5025863;28;20218;-76
2023/08/22 14:15:18;;;;;;;6.68;3.80;;;;;;;;;;5040789;28;20237;-78
2023/08/22 14:17:46;;;;;;;4.43;3.75;;;;;;;;;;5044774;28;20211;-77
2023/08/22 14:20:13;;;;;;;4.72;3.45;;;;;;;;;;5035766;28;20206;-77
2023/08/22 14:22:42;;;;;;;4.47;3.30;;;;;;;;;;5037698;28;20229;-76
2023/08/22 14:25:09;;;;;;;4.32;3.13;;;;;;;;;;5038648;28;20225;-76
2023/08/22 14:27:36;;;;;;;5.03;3.70;;;;;;;;;;5038253;28;20201;-77
2023/08/22 14:30:04;;;;;;;5.35;3.60;;;;;;;;;;5037462;28;20213;-77
2023/08/22 14:32:31;;;;;;;3.95;3.53;;;;;;;;;;5041924;28;20214;-76
2023/08/22 14:35:00;;;;;;;5.68;3.10;;;;;;;;;;5037379;28;20696;-76
2023/08/22 14:37:27;;;;;;;4.00;3.33;;;;;;;;;;5042248;28;20205;-77
2023/08/22 14:39:55;;;;;;;3.95;3.10;;;;;;;;;;5034929;28;20198;-76
2023/08/22 14:42:22;;;;;;;4.60;3.35;;;;;;;;;;5046341;28;20205;-76
2023/08/22 14:44:49;;;;;;;4.35;3.08;;;;;;;;;;5041815;28;20276;-76
2023/08/22 14:47:16;;;;;;;3.20;3.00;;;;;;;;;;5018400;28;20202;-76
2023/08/22 14:49:44;;;;;;;5.78;3.45;;;;;;;;;;5052178;28;20209;-75
2023/08/22 14:52:11;;;;;;;3.92;3.45;;;;;;;;;;5042758;28;20204;-76
2023/08/22 14:54:38;;;;;;;5.13;3.33;;;;;;;;;;5037252;28;20252;-79